createdAt,value
2023-02-22T00:02:27.164Z,80.00
2023-02-22T00:04:55.919Z,82.37
2023-02-22T00:07:27.699Z,86.00
2023-02-22T00:10:00.992Z,85.23
2023-02-22T00:12:31.211Z,88.13
2023-02-22T00:14:59.871Z,88.47
2023-02-22T00:17:30.536Z,87.50
2023-02-22T00:19:58.864Z,87.17
2023-02-22T00:22:27.263Z,96.83
2023-02-22T00:24:55.542Z,92.10
2023-02-22T00:27:23.900Z,98.13
2023-02-22T00:29:56.699Z,89.27
2023-02-22T00:32:25.366Z,98.80
2023-02-22T00:34:55.971Z,102.20
2023-02-22T00:37:26.587Z,107.03
2023-02-22T00:39:55.065Z,113.07
2023-02-22T00:42:23.481Z,110.37
2023-02-22T00:44:55.724Z,114.97
2023-02-22T00:47:24.119Z,113.53
2023-02-22T00:49:52.412Z,111.43
2023-02-22T00:52:20.918Z,128.97
2023-02-22T00:54:49.633Z,110.93
2023-02-22T00:57:19.220Z,116.87
2023-02-22T00:59:47.854Z,124.03
2023-02-22T01:02:18.317Z,110.30
2023-02-22T01:04:49.148Z,123.27
2023-02-22T01:07:17.747Z,126.17
2023-02-22T01:09:46.172Z,116.80
2023-02-22T01:12:16.176Z,113.60
2023-02-22T01:14:44.572Z,133.60
2023-02-22T01:17:12.971Z,127.23
2023-02-22T01:19:43.814Z,132.97
2023-02-22T01:22:12.137Z,126.97
2023-02-22T01:24:40.922Z,133.57
2023-02-22T01:27:11.008Z,145.57
2023-02-22T01:29:40.682Z,141.23
2023-02-22T01:32:09.395Z,130.90
2023-02-22T01:34:37.714Z,175.97
2023-02-22T01:37:07.626Z,144.23
2023-02-22T01:39:35.912Z,148.87
2023-02-22T01:42:04.365Z,153.63
2023-02-22T01:44:35.778Z,163.93
2023-02-22T01:47:06.072Z,137.30
2023-02-22T01:49:39.374Z,184.60
2023-02-22T01:52:11.745Z,205.20
2023-02-22T01:54:46.842Z,174.20
2023-02-22T01:57:19.538Z,187.93
2023-02-22T01:59:51.528Z,189.47
2023-02-22T02:02:22.414Z,180.33
2023-02-22T02:04:55.650Z,246.90
2023-02-22T02:07:26.083Z,193.77
2023-02-22T02:09:59.886Z,260.43
2023-02-22T02:12:31.722Z,228.43
2023-02-22T02:15:18.500Z,234.03
2023-02-22T02:17:48.068Z,220.77
2023-02-22T02:20:25.064Z,217.70
2023-02-22T02:23:01.751Z,244.73
2023-02-22T02:26:04.003Z,219.30
2023-02-22T02:29:23.371Z,261.07
2023-02-22T02:32:22.451Z,310.33
2023-02-22T02:34:56.066Z,224.37
2023-02-22T02:37:34.383Z,400.57
2023-02-22T02:40:12.548Z,372.53
2023-02-22T02:42:45.892Z,429.77
2023-02-22T02:45:21.123Z,392.73
2023-02-22T02:47:58.884Z,350.73
2023-02-22T02:50:30.907Z,320.50
2023-02-22T02:53:03.765Z,453.27
2023-02-22T02:55:36.742Z,349.67
2023-02-22T02:58:05.892Z,600.93
2023-02-22T03:00:39.473Z,448.73
2023-02-22T03:03:24.958Z,469.73
2023-02-22T03:06:06.772Z,530.07
2023-02-22T03:08:43.300Z,527.17
2023-02-22T03:11:16.651Z,499.47
2023-02-22T03:13:56.003Z,382.03
2023-02-22T03:16:35.121Z,397.93
2023-02-22T03:19:10.678Z,385.13
2023-02-22T03:21:48.413Z,340.70
2023-02-22T03:24:23.260Z,503.53
2023-02-22T03:27:00.284Z,428.87
2023-02-22T03:29:35.654Z,294.20
2023-02-22T03:32:11.383Z,324.97
2023-02-22T03:34:45.988Z,385.87
2023-02-22T03:37:22.127Z,277.70
2023-02-22T03:39:55.615Z,363.77
2023-02-22T03:42:28.247Z,334.50
2023-02-22T03:45:01.460Z,402.90
2023-02-22T03:47:36.787Z,240.07
2023-02-22T03:50:12.770Z,241.50
2023-02-22T03:52:41.843Z,289.37
2023-02-22T03:55:17.867Z,328.07
2023-02-22T03:57:49.513Z,303.07
2023-02-22T04:00:22.443Z,221.43
2023-02-22T04:02:52.446Z,253.03
2023-02-22T04:05:25.066Z,250.87
2023-02-22T04:07:53.940Z,221.10
2023-02-22T04:10:22.755Z,306.93
2023-02-22T04:12:51.813Z,249.80
2023-02-22T04:15:22.328Z,274.30
2023-02-22T04:17:53.136Z,248.47
2023-02-22T04:20:25.826Z,251.70
2023-02-22T04:23:00.711Z,227.80
2023-02-22T04:25:33.043Z,297.57
2023-02-22T04:28:12.794Z,250.13
2023-02-22T04:30:53.906Z,252.00
2023-02-22T04:33:23.291Z,267.73
2023-02-22T04:35:52.961Z,224.23
2023-02-22T04:38:21.696Z,165.03
2023-02-22T04:40:50.267Z,146.43
2023-02-22T04:43:18.900Z,166.63
2023-02-22T04:45:48.821Z,153.23
2023-02-22T04:48:17.343Z,157.37
2023-02-22T04:50:45.698Z,164.73
2023-02-22T04:53:16.962Z,139.17
2023-02-22T04:55:45.339Z,164.07
2023-02-22T04:58:13.838Z,135.63
2023-02-22T05:00:42.533Z,149.97
2023-02-22T05:03:11.326Z,148.50
2023-02-22T05:05:39.989Z,152.03
2023-02-22T05:08:11.484Z,165.80
2023-02-22T05:10:41.268Z,152.93
2023-02-22T05:13:09.735Z,166.10
2023-02-22T05:15:38.270Z,157.13
2023-02-22T05:18:06.855Z,130.57
2023-02-22T05:20:36.647Z,132.10
2023-02-22T05:23:06.014Z,126.67
2023-02-22T05:25:35.615Z,124.03
2023-02-22T05:28:09.609Z,131.10
2023-02-22T05:30:39.777Z,129.23
2023-02-22T05:33:08.912Z,141.57
2023-02-22T05:35:38.271Z,152.57
2023-02-22T05:38:09.649Z,142.70
2023-02-22T05:40:38.004Z,150.17
2023-02-22T05:43:07.824Z,151.23
2023-02-22T05:45:36.791Z,139.90
2023-02-22T05:48:05.799Z,146.13
2023-02-22T05:50:34.222Z,125.90
2023-02-22T05:53:03.259Z,132.40
2023-02-22T05:55:31.954Z,118.67
2023-02-22T05:58:02.289Z,120.47
2023-02-22T06:00:34.684Z,131.13
2023-02-22T06:03:04.946Z,140.93
2023-02-22T06:05:33.616Z,125.13
2023-02-22T06:08:03.358Z,139.03
2023-02-22T06:10:31.969Z,132.37
2023-02-22T06:13:02.148Z,112.40
2023-02-22T06:15:30.818Z,142.43
2023-02-22T06:18:04.110Z,123.53
2023-02-22T06:20:33.481Z,116.90
2023-02-22T06:23:01.980Z,111.67
2023-02-22T06:25:32.535Z,109.77
2023-02-22T06:28:01.922Z,96.27
2023-02-22T06:30:30.645Z,100.77
2023-02-22T06:32:59.373Z,100.07
2023-02-22T06:35:29.230Z,105.20
2023-02-22T06:37:57.689Z,104.40
2023-02-22T06:40:29.576Z,109.63
2023-02-22T06:42:59.967Z,102.37
2023-02-22T06:45:30.998Z,103.70
2023-02-22T06:47:59.446Z,100.90
2023-02-22T06:50:31.332Z,105.33
2023-02-22T06:53:00.093Z,107.73
2023-02-22T06:55:30.345Z,101.73
2023-02-22T06:57:58.956Z,111.67
2023-02-22T07:00:28.163Z,105.07
2023-02-22T07:02:57.278Z,126.77
2023-02-22T07:05:27.352Z,109.83
2023-02-22T07:08:04.629Z,100.23
2023-02-22T07:10:34.195Z,100.47
2023-02-22T07:13:03.525Z,95.83
2023-02-22T07:15:35.454Z,108.50
2023-02-22T07:18:04.258Z,91.37
2023-02-22T07:20:33.941Z,91.23
2023-02-22T07:23:03.817Z,92.30
2023-02-22T07:25:32.326Z,87.20
2023-02-22T07:28:00.785Z,80.60
2023-02-22T07:30:31.714Z,80.03
2023-02-22T07:33:02.483Z,74.43
2023-02-22T07:35:32.281Z,86.60
2023-02-22T07:38:01.032Z,75.00
2023-02-22T07:40:31.122Z,67.07
2023-02-22T07:43:01.733Z,72.57
2023-02-22T07:45:31.777Z,74.93
2023-02-22T07:48:01.260Z,72.20
2023-02-22T07:50:31.430Z,69.97
2023-02-22T07:53:01.578Z,70.27
2023-02-22T07:55:33.091Z,78.83
2023-02-22T07:58:03.326Z,73.27
2023-02-22T08:00:34.373Z,71.87
2023-02-22T08:03:03.999Z,83.37
2023-02-22T08:05:33.941Z,70.43
2023-02-22T08:08:02.976Z,76.10
2023-02-22T08:10:33.070Z,79.70
2023-02-22T08:13:02.002Z,75.90
2023-02-22T08:15:32.271Z,83.37
2023-02-22T08:18:02.177Z,75.83
2023-02-22T08:20:31.757Z,82.17
2023-02-22T08:23:00.406Z,76.00
2023-02-22T08:25:30.667Z,87.60
2023-02-22T08:28:01.808Z,83.93
2023-02-22T08:30:31.702Z,78.27
2023-02-22T08:33:02.619Z,80.57
2023-02-22T08:35:32.505Z,77.00
2023-02-22T08:38:02.742Z,80.00
2023-02-22T08:40:33.400Z,84.93
2023-02-22T08:43:03.606Z,81.07
2023-02-22T08:45:32.298Z,85.83
2023-02-22T08:48:00.951Z,84.57
2023-02-22T08:50:33.052Z,88.50
2023-02-22T08:53:04.947Z,83.60
2023-02-22T08:55:36.412Z,89.63
2023-02-22T08:58:10.112Z,82.33
2023-02-22T09:00:40.792Z,78.47
2023-02-22T09:03:13.381Z,80.57
2023-02-22T09:05:42.590Z,79.70
2023-02-22T09:08:11.552Z,72.90
2023-02-22T09:10:40.817Z,80.90
2023-02-22T09:13:10.732Z,79.40
2023-02-22T09:15:40.023Z,79.23
2023-02-22T09:18:10.824Z,80.73
2023-02-22T09:20:39.558Z,83.70
2023-02-22T09:23:09.892Z,75.07
2023-02-22T09:25:38.902Z,75.00
2023-02-22T09:28:07.702Z,70.60
2023-02-22T09:30:38.328Z,61.97
2023-02-22T09:33:10.160Z,62.13
2023-02-22T09:35:42.497Z,64.80
2023-02-22T09:38:12.448Z,59.13
2023-02-22T09:40:45.954Z,59.60
2023-02-22T09:43:35.839Z,60.80
2023-02-22T09:46:20.538Z,55.70
2023-02-22T09:48:59.340Z,57.57
2023-02-22T09:51:32.055Z,47.87
2023-02-22T09:54:03.957Z,45.80
2023-02-22T09:56:35.128Z,50.03
2023-02-22T09:59:08.005Z,41.60
2023-02-22T10:01:43.548Z,43.33
2023-02-22T10:04:20.060Z,40.77
2023-02-22T10:07:06.261Z,37.57
2023-02-22T10:09:41.326Z,40.33
2023-02-22T10:12:15.839Z,39.10
2023-02-22T10:14:55.605Z,42.07
2023-02-22T10:17:35.262Z,30.20
2023-02-22T10:20:19.902Z,32.77
2023-02-22T10:23:00.783Z,36.47
2023-02-22T10:25:35.081Z,30.97
2023-02-22T10:28:07.482Z,29.33
2023-02-22T10:30:42.055Z,33.83
2023-02-22T10:33:16.880Z,30.23
2023-02-22T10:35:47.269Z,27.53
2023-02-22T10:38:20.573Z,28.47
2023-02-22T10:40:54.835Z,27.57
2023-02-22T10:43:25.812Z,27.20
2023-02-22T10:45:57.584Z,25.57
2023-02-22T10:48:30.318Z,27.57
2023-02-22T10:51:03.157Z,25.60
2023-02-22T10:53:33.150Z,24.83
2023-02-22T10:56:12.898Z,28.13
2023-02-22T10:58:48.066Z,27.10
2023-02-22T11:01:21.833Z,26.67
2023-02-22T11:04:00.985Z,28.17
2023-02-22T11:06:30.117Z,25.37
2023-02-22T11:09:10.431Z,23.37
2023-02-22T11:11:40.479Z,25.30
2023-02-22T11:14:11.641Z,26.87
2023-02-22T11:16:43.812Z,30.97
2023-02-22T11:19:21.057Z,24.17
2023-02-22T11:21:53.181Z,25.87
2023-02-22T11:24:24.862Z,23.17
2023-02-22T11:26:56.483Z,20.13
2023-02-22T11:29:28.881Z,20.60
2023-02-22T11:31:57.474Z,20.10
2023-02-22T11:34:31.218Z,21.07
2023-02-22T11:37:18.380Z,19.93
2023-02-22T11:39:47.525Z,15.87
2023-02-22T11:42:23.622Z,16.23
2023-02-22T11:45:09.939Z,21.50
2023-02-22T11:47:49.205Z,16.43
2023-02-22T11:50:25.460Z,15.80
2023-02-22T11:53:05.831Z,27.30
2023-02-22T11:55:43.048Z,14.30
2023-02-22T11:58:28.083Z,16.63
2023-02-22T12:01:02.374Z,16.07
2023-02-22T12:03:50.661Z,17.00
2023-02-22T12:06:31.153Z,14.87
2023-02-22T12:09:14.190Z,12.77
2023-02-22T12:11:57.330Z,18.13
2023-02-22T12:14:32.165Z,14.80
2023-02-22T12:17:20.558Z,13.17
2023-02-22T12:19:51.264Z,15.50
2023-02-22T12:22:26.667Z,15.00
2023-02-22T12:25:10.353Z,13.87
2023-02-22T12:27:45.377Z,12.53
2023-02-22T12:30:20.837Z,14.77
2023-02-22T12:32:52.777Z,14.10
2023-02-22T12:35:24.781Z,17.03
2023-02-22T12:38:04.253Z,12.17
2023-02-22T12:40:39.594Z,14.30
2023-02-22T12:43:17.405Z,13.33
2023-02-22T12:45:51.735Z,15.87
2023-02-22T12:48:43.550Z,18.23
2023-02-22T12:51:29.505Z,16.30
2023-02-22T12:54:06.742Z,14.03
2023-02-22T12:56:41.109Z,14.70
2023-02-22T12:59:19.380Z,15.43
2023-02-22T13:01:53.810Z,14.87
2023-02-22T13:04:22.455Z,16.43
2023-02-22T13:07:06.520Z,15.83
2023-02-22T13:10:09.211Z,16.33
2023-02-22T13:12:44.542Z,14.33
2023-02-22T13:15:21.588Z,16.57
2023-02-22T13:18:01.798Z,16.17
2023-02-22T13:20:35.499Z,16.77
2023-02-22T13:23:12.402Z,14.07
2023-02-22T13:25:52.448Z,17.50
2023-02-22T13:28:30.108Z,14.87
2023-02-22T13:31:12.107Z,17.50
2023-02-22T13:34:01.421Z,15.47
2023-02-22T13:36:58.759Z,14.67
2023-02-22T13:39:55.963Z,18.37
2023-02-22T13:42:47.750Z,16.27
2023-02-22T13:45:45.550Z,15.27
2023-02-22T13:48:53.148Z,19.53
2023-02-22T13:51:40.995Z,17.87
2023-02-22T13:54:17.396Z,20.53
2023-02-22T13:56:47.272Z,15.07
2023-02-22T13:59:27.610Z,15.07
2023-02-22T14:01:56.930Z,17.20
2023-02-22T14:04:46.346Z,17.57
2023-02-22T14:07:57.573Z,20.10
2023-02-22T14:10:49.369Z,16.07
2023-02-22T14:13:19.256Z,16.87
2023-02-22T14:16:20.301Z,15.33
2023-02-22T14:18:51.830Z,16.10
2023-02-22T14:21:21.827Z,16.87
2023-02-22T14:23:52.144Z,17.80
2023-02-22T14:26:26.882Z,19.73
2023-02-22T14:28:58.320Z,18.83
2023-02-22T14:31:36.833Z,15.53
2023-02-22T14:34:08.788Z,18.43
2023-02-22T14:36:43.753Z,19.10
2023-02-22T14:39:21.858Z,18.67
2023-02-22T14:41:56.967Z,19.07
2023-02-22T14:44:34.652Z,17.40
2023-02-22T14:47:08.592Z,19.57
2023-02-22T14:49:42.685Z,22.00
2023-02-22T14:52:22.786Z,18.70
2023-02-22T14:54:59.850Z,18.87
2023-02-22T14:57:39.008Z,19.87
2023-02-22T15:00:20.227Z,18.30
2023-02-22T15:02:57.329Z,23.33
2023-02-22T15:05:30.384Z,20.10
2023-02-22T15:08:01.491Z,18.17
2023-02-22T15:10:32.173Z,21.40
2023-02-22T15:13:12.707Z,19.07
2023-02-22T15:15:48.232Z,19.53
2023-02-22T15:18:29.599Z,23.13
2023-02-22T15:21:00.503Z,23.50
2023-02-22T15:23:33.504Z,21.40
2023-02-22T15:26:03.142Z,23.03
2023-02-22T15:28:32.432Z,18.83
2023-02-22T15:31:26.011Z,21.73
2023-02-22T15:33:56.458Z,23.00
2023-02-22T15:36:28.844Z,26.57
2023-02-22T15:38:57.401Z,19.63
2023-02-22T15:41:29.518Z,20.37
2023-02-22T15:44:14.247Z,21.50
2023-02-22T15:46:52.382Z,25.27
2023-02-22T15:49:25.950Z,26.50
2023-02-22T15:52:07.422Z,21.33
2023-02-22T15:54:45.834Z,28.00
2023-02-22T15:57:20.929Z,23.13
2023-02-22T15:59:53.862Z,23.30
2023-02-22T16:02:38.767Z,24.17
2023-02-22T16:05:12.992Z,25.50
2023-02-22T16:07:45.529Z,25.67
2023-02-22T16:10:25.125Z,24.97
2023-02-22T16:13:30.993Z,32.73
2023-02-22T16:16:03.020Z,27.93
2023-02-22T16:18:35.071Z,33.70
2023-02-22T16:21:07.806Z,25.60
2023-02-22T16:23:46.126Z,27.70
2023-02-22T16:26:22.179Z,32.50
2023-02-22T16:28:53.176Z,32.53
2023-02-22T16:31:22.926Z,29.40
2023-02-22T16:33:52.210Z,32.13
2023-02-22T16:36:25.696Z,26.73
2023-02-22T16:38:54.168Z,25.63
2023-02-22T16:41:22.599Z,32.93
2023-02-22T16:43:51.880Z,33.57
2023-02-22T16:46:21.030Z,27.20
2023-02-22T16:48:49.567Z,30.00
2023-02-22T16:51:24.281Z,33.50
2023-02-22T16:53:55.928Z,31.83
2023-02-22T16:56:30.797Z,28.57
2023-02-22T16:59:04.228Z,30.23
2023-02-22T17:01:35.329Z,26.63
2023-02-22T17:04:15.731Z,27.63
2023-02-22T17:06:45.866Z,30.00
2023-02-22T17:09:15.367Z,30.27
2023-02-22T17:11:44.789Z,27.87
2023-02-22T17:14:19.068Z,29.60
2023-02-22T17:16:47.813Z,27.83
2023-02-22T17:19:18.411Z,26.23
2023-02-22T17:21:51.509Z,27.03
2023-02-22T17:24:23.003Z,29.93
2023-02-22T17:26:52.134Z,32.60
2023-02-22T17:29:20.760Z,33.47
2023-02-22T17:31:49.499Z,30.67
2023-02-22T17:34:18.056Z,29.70
2023-02-22T17:36:46.738Z,31.73
2023-02-22T17:39:16.757Z,32.80
2023-02-22T17:41:45.345Z,29.93
2023-02-22T17:44:13.801Z,36.37
2023-02-22T17:46:42.282Z,29.90
2023-02-22T17:49:10.835Z,34.23
2023-02-22T17:51:41.169Z,35.50
2023-02-22T17:54:10.511Z,38.83
2023-02-22T17:56:42.580Z,36.73
2023-02-22T17:59:10.997Z,35.10
2023-02-22T18:01:39.495Z,33.47
2023-02-22T18:04:07.978Z,41.37
2023-02-22T18:06:38.164Z,35.80
2023-02-22T18:09:10.753Z,36.80
2023-02-22T18:11:41.244Z,39.17
2023-02-22T18:14:10.968Z,43.57
2023-02-22T18:16:40.777Z,36.40
2023-02-22T18:19:09.510Z,41.77
2023-02-22T18:21:38.731Z,44.17
2023-02-22T18:24:08.088Z,40.07
2023-02-22T18:26:40.126Z,41.43
2023-02-22T18:29:12.402Z,43.93
2023-02-22T18:31:41.022Z,42.30
2023-02-22T18:34:12.983Z,39.80
2023-02-22T18:36:41.368Z,44.17
2023-02-22T18:39:13.122Z,42.10
2023-02-22T18:41:45.025Z,42.53
2023-02-22T18:44:13.449Z,38.87
2023-02-22T18:46:43.630Z,44.30
2023-02-22T18:49:14.020Z,48.77
2023-02-22T18:51:43.715Z,45.90
2023-02-22T18:54:13.828Z,45.03
2023-02-22T18:56:43.649Z,46.07
2023-02-22T18:59:13.333Z,52.60
2023-02-22T19:01:48.717Z,46.67
2023-02-22T19:04:19.863Z,47.03
2023-02-22T19:06:49.867Z,45.53
2023-02-22T19:09:18.872Z,46.90
2023-02-22T19:11:50.981Z,46.67
2023-02-22T19:14:19.701Z,47.07
2023-02-22T19:16:50.855Z,47.53
2023-02-22T19:19:21.017Z,46.53
2023-02-22T19:21:49.970Z,43.63
2023-02-22T19:24:20.607Z,45.07
2023-02-22T19:26:51.846Z,44.03
2023-02-22T19:29:23.891Z,44.40
2023-02-22T19:31:53.844Z,48.07
2023-02-22T19:34:24.682Z,47.17
2023-02-22T19:36:53.451Z,46.60
2023-02-22T19:41:53.394Z,46.60
2023-02-22T19:44:22.090Z,44.83
2023-02-22T19:46:50.721Z,48.67
2023-02-22T19:49:19.206Z,43.87
2023-02-22T19:51:47.803Z,50.73
2023-02-22T19:54:21.558Z,48.87
2023-02-22T19:56:51.994Z,50.20
2023-02-22T19:59:23.606Z,50.83
2023-02-22T20:01:54.807Z,50.80
2023-02-22T20:04:24.450Z,44.57
2023-02-22T20:06:55.309Z,47.50
2023-02-22T20:09:30.051Z,46.03
2023-02-22T20:11:58.896Z,50.83
2023-02-22T20:14:30.568Z,49.83
2023-02-22T20:16:59.614Z,51.07
2023-02-22T20:19:29.920Z,49.50
2023-02-22T20:22:00.435Z,55.80
2023-02-22T20:24:28.925Z,51.57
2023-02-22T20:26:58.432Z,51.87
2023-02-22T20:29:30.728Z,50.13
2023-02-22T20:32:00.720Z,51.80
2023-02-22T20:34:32.453Z,51.00
2023-02-22T20:37:02.087Z,50.53
2023-02-22T20:39:30.808Z,52.37
2023-02-22T20:42:02.752Z,52.40
2023-02-22T20:44:32.668Z,55.67
2023-02-22T20:47:01.328Z,52.60
2023-02-22T20:49:29.946Z,58.17
2023-02-22T20:51:58.598Z,49.23
2023-02-22T20:54:30.083Z,51.63
2023-02-22T20:56:59.048Z,51.37
2023-02-22T20:59:29.100Z,46.70
2023-02-22T21:01:59.158Z,55.27
2023-02-22T21:04:30.646Z,52.07
2023-02-22T21:06:59.272Z,52.27
2023-02-22T21:09:27.798Z,52.90
2023-02-22T21:11:56.600Z,49.70
2023-02-22T21:14:25.594Z,53.07
2023-02-22T21:16:54.123Z,54.13
2023-02-22T21:19:26.526Z,58.77
2023-02-22T21:21:56.487Z,57.47
2023-02-22T21:24:26.288Z,55.73
2023-02-22T21:26:56.070Z,64.37
2023-02-22T21:29:25.313Z,57.33
2023-02-22T21:31:54.411Z,57.77
2023-02-22T21:34:25.963Z,60.33
2023-02-22T21:36:54.818Z,62.57
2023-02-22T21:39:28.406Z,66.23
2023-02-22T21:42:00.339Z,73.40
2023-02-22T21:44:29.744Z,75.33
2023-02-22T21:46:58.495Z,82.23
2023-02-22T21:49:29.011Z,75.53
2023-02-22T21:51:57.782Z,75.47
2023-02-22T21:54:28.149Z,83.43
2023-02-22T21:56:56.827Z,88.40
2023-02-22T21:59:25.375Z,88.23
2023-02-22T22:01:56.570Z,98.53
2023-02-22T22:04:28.108Z,95.53
2023-02-22T22:07:00.854Z,104.67
2023-02-22T22:09:33.389Z,112.37
2023-02-22T22:12:05.206Z,115.23
2023-02-22T22:14:35.151Z,119.23
2023-02-22T22:17:09.418Z,111.97
2023-02-22T22:19:40.560Z,121.60
2023-02-22T22:22:11.089Z,119.77
2023-02-22T22:24:41.820Z,113.13
2023-02-22T22:27:13.132Z,114.83
2023-02-22T22:29:43.550Z,101.23
2023-02-22T22:32:12.425Z,112.00
2023-02-22T22:34:42.643Z,113.93
2023-02-22T22:37:13.350Z,111.97
2023-02-22T22:39:42.547Z,117.07
2023-02-22T22:42:11.082Z,114.73
2023-02-22T22:44:42.220Z,116.33
2023-02-22T22:47:12.737Z,113.43
2023-02-22T22:49:42.723Z,129.50
2023-02-22T22:52:14.685Z,113.20
2023-02-22T22:54:45.830Z,127.33
2023-02-22T22:57:14.762Z,124.70
2023-02-22T22:59:43.307Z,125.40
2023-02-22T23:02:11.964Z,113.77
2023-02-22T23:04:40.432Z,106.27
2023-02-22T23:07:08.807Z,122.17
2023-02-22T23:09:39.606Z,117.00
2023-02-22T23:12:09.856Z,106.53
2023-02-22T23:14:40.080Z,106.50
2023-02-22T23:17:14.977Z,111.17
2023-02-22T23:19:44.939Z,100.97
2023-02-22T23:22:14.498Z,86.27
2023-02-22T23:24:45.557Z,100.07
2023-02-22T23:27:13.983Z,93.50
2023-02-22T23:29:46.865Z,105.57
2023-02-22T23:32:15.794Z,108.47
2023-02-22T23:34:44.430Z,118.97
2023-02-22T23:37:14.252Z,105.27
2023-02-22T23:39:44.536Z,92.70
2023-02-22T23:42:16.821Z,118.40
2023-02-22T23:44:46.205Z,121.37
2023-02-22T23:47:16.235Z,105.00
2023-02-22T23:49:49.453Z,113.93
2023-02-22T23:52:24.090Z,121.30
2023-02-22T23:54:54.607Z,108.23
2023-02-22T23:57:24.471Z,121.77
2023-02-22T23:59:53.053Z,124.00
